Time;durP1;ratioP1;P1;durP2;ratioP2;P2;SDS_P1;SDS_P2;PMS_P1;PMS_P2;Temp;Humidity;BMP_temperature;BMP_pressure;BME280_temperature;BME280_humidity;BME280_pressure;Samples;Min_cycle;Max_cycle;Signal;HPM_P1;HPM_P2
2021/12/28 00:00:03;;;;;;;15.07;4.22;;;;;;;6.73;100.00;97569.50;4960383;28;20066;-62
2021/12/28 00:02:28;;;;;;;14.77;4.28;;;;;;;6.73;100.00;97564.16;4949306;28;20035;-60
2021/12/28 00:04:54;;;;;;;12.27;3.95;;;;;;;6.77;100.00;97562.59;4960177;28;20283;-60
2021/12/28 00:07:20;;;;;;;13.15;3.70;;;;;;;6.83;100.00;97561.56;4952709;28;20039;-60
2021/12/28 00:09:46;;;;;;;16.13;4.90;;;;;;;6.83;100.00;97550.91;4957933;28;20134;-60
2021/12/28 00:12:11;;;;;;;14.00;3.70;;;;;;;6.88;100.00;97554.38;4949861;28;20146;-60
2021/12/28 00:14:41;;;;;;;16.98;3.80;;;;;;;6.89;100.00;97555.22;4949338;28;20035;-60
2021/12/28 00:19:51;;;;;;;24.70;3.97;;;;;;;6.96;100.00;97550.41;4948919;28;20054;-60
2021/12/28 00:22:16;;;;;;;15.88;3.15;;;;;;;6.93;100.00;97561.59;4950675;28;20043;-60
2021/12/28 00:24:43;;;;;;;16.10;3.38;;;;;;;6.97;100.00;97562.69;4956246;28;20035;-60
2021/12/28 00:27:08;;;;;;;14.25;3.53;;;;;;;6.93;100.00;97547.50;4949441;28;20053;-60
2021/12/28 00:29:33;;;;;;;17.25;3.70;;;;;;;6.99;100.00;97533.94;4955089;28;20027;-60
2021/12/28 00:31:59;;;;;;;23.17;4.13;;;;;;;7.00;100.00;97553.38;4951408;28;20125;-60
2021/12/28 00:34:24;;;;;;;15.18;3.63;;;;;;;7.00;100.00;97548.84;4952474;28;20031;-60
2021/12/28 00:36:51;;;;;;;23.60;4.78;;;;;;;7.01;100.00;97536.31;4956035;28;20046;-60
2021/12/28 00:39:16;;;;;;;19.73;3.45;;;;;;;7.09;100.00;97539.31;4951220;28;20211;-60
2021/12/28 00:41:42;;;;;;;21.73;4.40;;;;;;;7.15;100.00;97542.78;4950819;28;20222;-60
2021/12/28 00:44:07;;;;;;;21.38;3.67;;;;;;;7.21;100.00;97535.59;4950722;28;20569;-60
2021/12/28 00:46:33;;;;;;;27.13;4.55;;;;;;;7.21;100.00;97531.06;4950590;28;20554;-60
2021/12/28 00:48:58;;;;;;;22.65;4.78;;;;;;;7.18;100.00;97523.59;4948454;28;20035;-61
2021/12/28 00:51:24;;;;;;;23.13;3.70;;;;;;;7.19;100.00;97529.72;4955547;28;20046;-61
2021/12/28 00:53:49;;;;;;;28.52;4.57;;;;;;;7.23;100.00;97520.94;4947946;28;20035;-61
2021/12/28 00:56:14;;;;;;;17.45;3.30;;;;;;;7.23;100.00;97522.81;4952028;28;20051;-61
2021/12/28 00:58:40;;;;;;;18.83;4.00;;;;;;;7.21;100.00;97522.28;4950737;28;20035;-60
2021/12/28 01:01:05;;;;;;;19.27;3.80;;;;;;;7.22;100.00;97505.25;4953163;28;20043;-60
2021/12/28 01:03:34;;;;;;;22.38;3.75;;;;;;;7.24;100.00;97509.25;4953945;28;20039;-60
2021/12/28 01:06:00;;;;;;;23.40;4.40;;;;;;;7.18;100.00;97507.63;4952839;28;20039;-60
2021/12/28 01:08:27;;;;;;;22.00;4.65;;;;;;;7.22;100.00;97500.72;4956501;28;20075;-60
2021/12/28 01:10:52;;;;;;;27.40;4.10;;;;;;;7.26;100.00;97500.97;4949226;28;20050;-60
2021/12/28 01:13:18;;;;;;;22.15;3.95;;;;;;;7.33;100.00;97496.19;4952782;28;20097;-60
2021/12/28 01:15:44;;;;;;;25.20;4.00;;;;;;;7.31;100.00;97508.97;4957770;28;20263;-61
2021/12/28 01:18:10;;;;;;;23.90;3.65;;;;;;;7.31;100.00;97493.00;4955807;28;20117;-60
2021/12/28 01:20:35;;;;;;;22.45;3.55;;;;;;;7.24;100.00;97503.09;4956211;28;20109;-61
2021/12/28 01:23:02;;;;;;;18.20;3.72;;;;;;;7.33;100.00;97506.84;4951684;28;20110;-61
2021/12/28 01:25:27;;;;;;;26.02;3.92;;;;;;;7.34;100.00;97503.16;4953542;28;20043;-61
2021/12/28 01:27:53;;;;;;;30.13;3.80;;;;;;;7.33;100.00;97491.66;4955763;28;20030;-60
2021/12/28 01:30:20;;;;;;;33.90;4.10;;;;;;;7.32;100.00;97484.75;4947973;28;20126;-61
2021/12/28 01:32:46;;;;;;;22.30;3.55;;;;;;;7.39;100.00;97492.50;4952460;28;20089;-60
2021/12/28 01:35:12;;;;;;;26.63;4.57;;;;;;;7.36;100.00;97490.34;4950431;28;20526;-59
2021/12/28 01:37:38;;;;;;;23.98;4.13;;;;;;;7.34;100.00;97482.63;4953117;28;20053;-59
2021/12/28 01:40:05;;;;;;;15.73;3.67;;;;;;;7.39;100.00;97481.84;4952383;28;20745;-61
2021/12/28 01:42:31;;;;;;;24.08;3.70;;;;;;;7.35;100.00;97476.22;4946467;28;20078;-61
2021/12/28 01:44:57;;;;;;;28.48;4.32;;;;;;;7.35;100.00;97465.56;4944320;28;20035;-60
2021/12/28 01:47:22;;;;;;;22.67;4.18;;;;;;;7.36;100.00;97469.00;4946863;28;20039;-60
2021/12/28 01:49:48;;;;;;;23.13;4.05;;;;;;;7.37;100.00;97462.63;4954985;28;20042;-61
2021/12/28 01:52:13;;;;;;;22.17;4.20;;;;;;;7.35;100.00;97468.22;4948295;28;20099;-61
2021/12/28 01:54:38;;;;;;;31.27;4.63;;;;;;;7.32;100.00;97467.97;4955328;28;20031;-60
2021/12/28 01:57:04;;;;;;;31.33;4.07;;;;;;;7.29;100.00;97463.97;4956449;28;20075;-61
2021/12/28 01:59:30;;;;;;;26.23;3.85;;;;;;;7.27;100.00;97459.94;4947322;28;20027;-60
2021/12/28 02:01:56;;;;;;;24.55;3.97;;;;;;;7.22;100.00;97454.63;4951945;28;20042;-60
2021/12/28 02:04:26;;;;;;;31.88;4.63;;;;;;;7.10;100.00;97445.00;4947789;28;20737;-60
2021/12/28 02:06:52;;;;;;;18.90;3.45;;;;;;;7.13;100.00;97438.34;4947346;28;20047;-60
2021/12/28 02:09:18;;;;;;;36.08;6.07;;;;;;;7.10;100.00;97438.88;4947559;28;20353;-60
2021/12/28 02:11:43;;;;;;;24.90;5.25;;;;;;;7.06;100.00;97425.28;4949934;28;20477;-60
2021/12/28 02:14:09;;;;;;;30.40;4.72;;;;;;;7.07;100.00;97426.88;4949330;28;20082;-60
2021/12/28 02:16:36;;;;;;;29.65;4.70;;;;;;;7.06;100.00;97433.28;4948848;28;20098;-60
2021/12/28 02:19:03;;;;;;;27.55;4.75;;;;;;;7.08;100.00;97428.47;4952023;28;20792;-60
2021/12/28 02:21:31;;;;;;;37.95;5.03;;;;;;;7.06;100.00;97421.81;4953366;28;20589;-61
2021/12/28 02:23:57;;;;;;;23.45;4.47;;;;;;;7.08;100.00;97425.78;4954513;28;20402;-61
2021/12/28 02:26:23;;;;;;;28.00;5.13;;;;;;;7.15;100.00;97419.44;4947707;28;20042;-60
2021/12/28 02:28:48;;;;;;;25.95;5.40;;;;;;;7.19;100.00;97425.81;4954850;28;20035;-60
2021/12/28 02:31:14;;;;;;;30.55;5.97;;;;;;;7.30;100.00;97419.44;4952794;28;20429;-61
2021/12/28 02:33:39;;;;;;;35.28;5.90;;;;;;;7.37;100.00;97411.19;4945024;28;20549;-60
2021/12/28 02:36:05;;;;;;;22.77;5.72;;;;;;;7.43;99.71;97416.25;4951243;28;20043;-61
2021/12/28 02:38:33;;;;;;;24.13;6.40;;;;;;;7.47;99.42;97416.53;4949070;28;20102;-60
2021/12/28 02:40:58;;;;;;;30.58;7.07;;;;;;;7.38;99.47;97412.78;4949237;28;20051;-61
2021/12/28 02:43:23;;;;;;;33.75;7.00;;;;;;;7.34;99.73;97412.53;4950995;28;20090;-60
2021/12/28 02:45:50;;;;;;;27.88;6.28;;;;;;;7.34;99.42;97413.31;4947542;28;20042;-60
2021/12/28 02:48:15;;;;;;;24.30;5.70;;;;;;;7.37;99.58;97404.00;4952759;28;20031;-60
2021/12/28 02:50:43;;;;;;;24.15;5.85;;;;;;;7.36;99.86;97389.06;4950536;28;20097;-60
2021/12/28 02:53:10;;;;;;;30.15;6.13;;;;;;;7.35;99.60;97395.47;4952610;28;20481;-60
2021/12/28 02:55:36;;;;;;;30.27;6.60;;;;;;;7.27;99.96;97396.00;4955384;28;20402;-60
2021/12/28 02:58:03;;;;;;;30.88;5.68;;;;;;;7.28;100.00;97397.59;4947712;28;20314;-60
2021/12/28 03:00:39;;;;;;;19.35;5.68;;;;;;;7.20;100.00;97401.59;4950529;28;20145;-60
2021/12/28 03:03:06;;;;;;;26.58;6.40;;;;;;;7.17;100.00;97404.78;4946926;28;20062;-59
2021/12/28 03:05:32;;;;;;;24.23;5.63;;;;;;;7.12;100.00;97408.22;4955627;28;20514;-59
2021/12/28 03:07:58;;;;;;;31.63;6.72;;;;;;;7.17;100.00;97409.31;4956450;28;20035;-61
2021/12/28 03:10:23;;;;;;;19.80;4.93;;;;;;;7.15;100.00;97400.78;4948795;28;20051;-59
2021/12/28 03:12:49;;;;;;;27.75;5.88;;;;;;;7.10;100.00;97401.56;4950202;28;20029;-59
2021/12/28 03:15:14;;;;;;;28.70;5.82;;;;;;;7.10;100.00;97401.56;4955774;28;20101;-60
2021/12/28 03:17:40;;;;;;;26.88;6.30;;;;;;;7.07;100.00;97394.13;4951749;28;20037;-60
2021/12/28 03:20:06;;;;;;;20.52;5.75;;;;;;;7.01;100.00;97401.28;4943446;28;20051;-60
2021/12/28 03:22:37;;;;;;;22.73;5.93;;;;;;;7.00;100.00;97394.34;4954369;28;20437;-61
2021/12/28 03:25:04;;;;;;;24.77;5.88;;;;;;;7.00;100.00;97397.03;4950436;28;20066;-60
2021/12/28 03:27:29;;;;;;;32.00;6.93;;;;;;;6.99;100.00;97390.09;4946600;28;20498;-61
2021/12/28 03:29:55;;;;;;;27.92;5.35;;;;;;;6.97;100.00;97392.22;4949195;28;20093;-60
2021/12/28 03:32:20;;;;;;;23.40;5.30;;;;;;;6.99;100.00;97395.44;4941112;28;20047;-61
2021/12/28 03:34:46;;;;;;;26.15;4.90;;;;;;;7.01;100.00;97387.94;4952259;28;20031;-61
2021/12/28 03:37:11;;;;;;;25.85;5.35;;;;;;;7.00;100.00;97386.38;4941208;28;20039;-61
2021/12/28 03:39:36;;;;;;;24.63;5.40;;;;;;;7.04;100.00;97383.97;4950139;28;20026;-60
2021/12/28 03:42:02;;;;;;;24.13;5.10;;;;;;;7.04;100.00;97381.28;4957941;28;20050;-61
2021/12/28 03:44:27;;;;;;;24.13;5.50;;;;;;;6.99;100.00;97389.28;4956720;28;20027;-61
2021/12/28 03:46:53;;;;;;;25.40;5.30;;;;;;;6.99;100.00;97379.44;4950264;28;20545;-61
2021/12/28 03:49:18;;;;;;;21.33;5.47;;;;;;;7.05;100.00;97383.72;4950199;28;20031;-60
2021/12/28 03:51:44;;;;;;;19.42;4.68;;;;;;;7.06;100.00;97374.66;4956162;28;20046;-59
2021/12/28 03:54:09;;;;;;;21.92;4.35;;;;;;;7.03;100.00;97371.72;4956226;28;20042;-61
2021/12/28 03:56:34;;;;;;;21.38;4.50;;;;;;;7.02;100.00;97370.13;4946623;28;20054;-58
2021/12/28 03:59:00;;;;;;;20.52;4.45;;;;;;;6.98;100.00;97363.72;4953144;28;20023;-59
2021/12/28 04:01:26;;;;;;;20.80;4.25;;;;;;;7.01;100.00;97360.53;4951447;28;20268;-62
2021/12/28 04:03:51;;;;;;;19.00;4.32;;;;;;;6.98;100.00;97359.19;4949687;28;20370;-59
2021/12/28 04:06:19;;;;;;;29.15;4.88;;;;;;;7.00;100.00;97359.72;4953720;28;20039;-61
2021/12/28 04:08:44;;;;;;;29.48;4.80;;;;;;;6.97;100.00;97352.28;4949673;28;20125;-59
2021/12/28 04:11:25;;;;;;;29.70;5.18;;;;;;;7.00;100.00;97356.28;4954653;28;20545;-59
2021/12/28 04:13:52;;;;;;;10.27;2.72;;;;;;;7.01;100.00;97355.19;4955702;28;20956;-59
2021/12/28 04:16:18;;;;;;;19.65;3.92;;;;;;;7.02;100.00;97354.94;4960897;28;20049;-59
2021/12/28 04:18:43;;;;;;;13.88;3.75;;;;;;;6.98;100.00;97356.53;4953242;28;20039;-59
2021/12/28 04:21:09;;;;;;;23.75;4.32;;;;;;;6.98;100.00;97345.88;4954399;28;20055;-59
2021/12/28 04:23:34;;;;;;;25.48;4.22;;;;;;;6.97;100.00;97354.94;4955448;28;20043;-59
2021/12/28 04:26:00;;;;;;;24.48;4.45;;;;;;;6.93;100.00;97343.22;4955032;28;20050;-59
2021/12/28 04:28:25;;;;;;;21.80;4.82;;;;;;;6.99;100.00;97344.00;4951184;28;20439;-59
2021/12/28 04:30:51;;;;;;;22.85;4.88;;;;;;;6.91;100.00;97337.34;4952347;28;20537;-60
2021/12/28 04:33:17;;;;;;;26.50;4.35;;;;;;;6.91;100.00;97335.50;4950680;28;20506;-59
2021/12/28 04:35:42;;;;;;;24.08;4.57;;;;;;;6.90;100.00;97335.75;4955495;28;20351;-59
2021/12/28 04:38:09;;;;;;;17.08;4.03;;;;;;;6.88;100.00;97336.00;4948502;28;20027;-59
2021/12/28 04:40:34;;;;;;;18.60;4.10;;;;;;;6.87;100.00;97337.09;4956858;28;20117;-59
2021/12/28 04:42:59;;;;;;;21.30;3.78;;;;;;;6.90;100.00;97328.56;4954081;28;20064;-60
2021/12/28 04:45:25;;;;;;;16.30;3.60;;;;;;;6.95;100.00;97335.75;4950576;28;20161;-60
2021/12/28 04:47:54;;;;;;;18.98;4.50;;;;;;;6.90;100.00;97330.44;4951217;28;20756;-60
2021/12/28 04:50:19;;;;;;;22.00;4.18;;;;;;;6.95;100.00;97319.78;4952410;28;20086;-60
2021/12/28 04:52:45;;;;;;;14.05;4.10;;;;;;;7.01;100.00;97316.03;4940077;28;20031;-61
2021/12/28 04:55:13;;;;;;;19.15;4.45;;;;;;;7.02;100.00;97315.00;4948772;28;20031;-60
2021/12/28 04:57:39;;;;;;;18.25;3.42;;;;;;;6.98;100.00;97313.91;4954738;28;20031;-64
2021/12/28 05:00:06;;;;;;;10.73;2.72;;;;;;;7.05;100.00;97313.66;4952072;28;20042;-60
2021/12/28 05:02:32;;;;;;;19.15;4.05;;;;;;;7.04;100.00;97304.88;4952718;28;20605;-60
2021/12/28 05:04:57;;;;;;;18.60;3.70;;;;;;;7.04;100.00;97312.88;4950532;28;20023;-60
2021/12/28 05:07:23;;;;;;;14.13;3.22;;;;;;;7.06;100.00;97304.59;4954384;28;20438;-60
2021/12/28 05:09:49;;;;;;;16.25;3.20;;;;;;;7.10;100.00;97306.47;4955642;28;20576;-60
2021/12/28 05:12:14;;;;;;;11.32;2.53;;;;;;;7.13;100.00;97300.59;4952317;28;20524;-60
2021/12/28 05:14:42;;;;;;;10.10;2.85;;;;;;;7.10;100.00;97300.34;4960128;28;20031;-60
2021/12/28 05:17:08;;;;;;;7.53;2.45;;;;;;;7.13;100.00;97297.94;4953269;28;20047;-60
2021/12/28 05:19:34;;;;;;;15.18;3.33;;;;;;;7.17;100.00;97297.41;4952150;28;20047;-60
2021/12/28 05:22:00;;;;;;;14.32;2.97;;;;;;;7.13;100.00;97291.81;4957087;28;20155;-60
2021/12/28 05:24:25;;;;;;;13.75;2.65;;;;;;;7.13;100.00;97294.47;4945918;28;20109;-61
2021/12/28 05:26:52;;;;;;;12.68;2.42;;;;;;;7.13;100.00;97281.94;4954029;28;20039;-60
2021/12/28 05:29:18;;;;;;;4.10;1.88;;;;;;;7.12;100.00;97288.34;4953976;28;20501;-60
2021/12/28 05:31:43;;;;;;;10.23;2.45;;;;;;;7.17;100.00;97273.44;4951794;28;20047;-60
2021/12/28 05:34:08;;;;;;;12.77;2.40;;;;;;;7.19;100.00;97276.59;4952754;28;20513;-60
2021/12/28 05:36:34;;;;;;;8.30;2.00;;;;;;;7.19;100.00;97264.09;4948410;28;20237;-60
2021/12/28 05:38:59;;;;;;;9.55;2.38;;;;;;;7.18;100.00;97275.03;4951244;28;20033;-60
2021/12/28 05:41:25;;;;;;;6.45;2.20;;;;;;;7.16;100.00;97269.94;4951594;28;20058;-60
2021/12/28 05:43:50;;;;;;;5.85;2.13;;;;;;;7.12;100.00;97271.56;4959075;28;20031;-60
2021/12/28 05:46:16;;;;;;;8.45;2.08;;;;;;;7.10;100.00;97265.72;4953380;28;20051;-60
2021/12/28 05:48:41;;;;;;;4.82;1.92;;;;;;;7.07;100.00;97263.59;4954344;28;20521;-60
2021/12/28 05:51:07;;;;;;;6.95;2.00;;;;;;;7.11;100.00;97267.28;4952244;28;20743;-61
2021/12/28 05:53:32;;;;;;;7.55;2.17;;;;;;;7.10;100.00;97266.50;4947671;28;20394;-61
2021/12/28 05:55:58;;;;;;;3.88;1.65;;;;;;;7.09;100.00;97254.25;4944711;28;20043;-60
2021/12/28 05:58:23;;;;;;;9.05;2.30;;;;;;;7.10;100.00;97250.50;4946431;28;20031;-60
2021/12/28 06:00:49;;;;;;;7.65;2.28;;;;;;;7.07;100.00;97245.72;4946583;28;20035;-60
2021/12/28 06:03:14;;;;;;;5.47;2.00;;;;;;;7.10;100.00;97255.84;4946508;28;20577;-61
2021/12/28 06:05:39;;;;;;;6.10;1.90;;;;;;;7.09;100.00;97254.25;4950036;28;20116;-60
2021/12/28 06:08:05;;;;;;;7.60;2.80;;;;;;;7.13;100.00;97246.50;4951410;28;20023;-60
2021/12/28 06:10:30;;;;;;;4.75;1.77;;;;;;;7.10;100.00;97250.50;4953224;28;20544;-60
2021/12/28 06:12:56;;;;;;;2.05;1.38;;;;;;;7.10;100.00;97247.06;4948528;28;20514;-60
2021/12/28 06:15:21;;;;;;;6.78;1.67;;;;;;;7.09;100.00;97248.94;4950885;28;20568;-61
2021/12/28 06:17:46;;;;;;;3.63;1.70;;;;;;;7.10;100.00;97255.06;4955282;28;20085;-60
2021/12/28 06:20:12;;;;;;;3.15;1.70;;;;;;;7.07;100.00;97253.72;4934810;29;20043;-60
2021/12/28 06:22:37;;;;;;;4.28;1.77;;;;;;;7.07;100.00;97258.25;4931938;29;20039;-60
2021/12/28 06:25:04;;;;;;;3.78;1.70;;;;;;;7.05;100.00;97250.53;4931436;29;20115;-60
2021/12/28 06:27:30;;;;;;;6.28;1.88;;;;;;;7.03;100.00;97251.84;4931815;29;20058;-60
2021/12/28 06:29:55;;;;;;;7.90;2.10;;;;;;;7.03;100.00;97247.31;4935317;29;20484;-61
2021/12/28 06:32:21;;;;;;;4.10;1.70;;;;;;;7.02;100.00;97245.72;4933666;29;20124;-60
2021/12/28 06:34:46;;;;;;;4.57;1.80;;;;;;;6.98;100.00;97239.34;4937513;29;20019;-60
2021/12/28 06:37:12;;;;;;;4.85;1.80;;;;;;;6.95;100.00;97245.19;4936308;28;20788;-60
2021/12/28 06:39:37;;;;;;;3.75;1.77;;;;;;;6.96;100.00;97252.13;4933857;29;20718;-60
2021/12/28 06:42:03;;;;;;;4.95;1.98;;;;;;;7.00;100.00;97250.53;4936546;28;20051;-60
2021/12/28 06:44:29;;;;;;;5.38;1.70;;;;;;;7.00;100.00;97249.72;4939316;29;20027;-60
2021/12/28 06:46:54;;;;;;;4.80;1.33;;;;;;;6.98;100.00;97244.66;4932482;28;20039;-60
2021/12/28 06:49:19;;;;;;;3.63;1.42;;;;;;;6.96;100.00;97235.34;4929432;29;20097;-60
2021/12/28 06:51:45;;;;;;;6.05;2.00;;;;;;;6.97;100.00;97237.75;4929669;29;20439;-60
2021/12/28 06:54:11;;;;;;;7.43;2.15;;;;;;;6.92;100.00;97240.41;4933493;29;20540;-60
2021/12/28 06:56:36;;;;;;;9.80;3.05;;;;;;;6.90;100.00;97239.88;4939333;28;20358;-60
2021/12/28 06:59:01;;;;;;;7.38;2.88;;;;;;;6.90;100.00;97229.22;4936244;29;20729;-60
2021/12/28 07:01:27;;;;;;;6.45;2.33;;;;;;;6.91;100.00;97236.13;4933875;29;20114;-60
2021/12/28 07:03:53;;;;;;;14.32;6.32;;;;;;;6.84;100.00;97222.28;4917361;29;20046;-61
2021/12/28 07:06:18;;;;;;;10.15;3.40;;;;;;;6.83;100.00;97226.03;4930382;28;20126;-60
2021/12/28 07:08:44;;;;;;;8.50;3.97;;;;;;;6.80;100.00;97221.25;4919314;29;20035;-61
2021/12/28 07:11:09;;;;;;;12.07;5.43;;;;;;;6.74;100.00;97223.13;4931481;29;20082;-61
2021/12/28 07:13:34;;;;;;;10.13;4.40;;;;;;;6.79;100.00;97225.78;4923386;29;20066;-61
2021/12/28 07:16:00;;;;;;;14.10;8.60;;;;;;;6.70;100.00;97230.03;4937973;29;20442;-61
2021/12/28 07:18:25;;;;;;;6.25;3.58;;;;;;;6.76;100.00;97230.81;4939312;28;20050;-62
2021/12/28 07:20:51;;;;;;;5.95;3.25;;;;;;;6.83;100.00;97234.00;4955166;28;20065;-61
2021/12/28 07:23:16;;;;;;;8.18;3.67;;;;;;;6.75;100.00;97234.56;4954287;28;20065;-61
2021/12/28 07:25:42;;;;;;;5.03;2.47;;;;;;;6.66;100.00;97231.59;4948260;28;20065;-60
2021/12/28 07:28:07;;;;;;;5.68;2.10;;;;;;;6.68;100.00;97232.94;4948707;28;20038;-60
2021/12/28 07:30:33;;;;;;;3.85;2.00;;;;;;;6.68;100.00;97232.16;4955739;28;20050;-60
2021/12/28 07:32:58;;;;;;;4.85;2.22;;;;;;;6.69;100.00;97231.91;4952189;28;20132;-60
2021/12/28 07:35:24;;;;;;;6.68;3.63;;;;;;;6.67;100.00;97241.22;4955175;28;20062;-60
2021/12/28 07:37:50;;;;;;;4.82;2.08;;;;;;;6.69;100.00;97242.53;4954945;28;20026;-60
2021/12/28 07:40:15;;;;;;;3.97;1.50;;;;;;;6.66;100.00;97245.75;4960800;28;20055;-60
2021/12/28 07:42:41;;;;;;;5.40;2.80;;;;;;;6.60;100.00;97249.44;4947419;28;20137;-60
2021/12/28 07:45:09;;;;;;;8.13;1.98;;;;;;;6.62;100.00;97242.00;4954470;28;20035;-60
2021/12/28 07:47:35;;;;;;;4.50;2.28;;;;;;;6.60;100.00;97252.13;4964010;28;20034;-60
2021/12/28 07:50:04;;;;;;;12.90;6.85;;;;;;;6.53;100.00;97253.44;4955101;28;20025;-61
2021/12/28 07:52:30;;;;;;;9.75;6.82;;;;;;;6.48;100.00;97254.22;4948304;28;20672;-60
2021/12/28 07:54:55;;;;;;;6.28;2.70;;;;;;;6.39;100.00;97258.44;4952491;28;20034;-61
2021/12/28 07:57:21;;;;;;;15.30;11.52;;;;;;;6.36;100.00;97272.28;4962222;28;20082;-61
2021/12/28 07:59:46;;;;;;;5.00;3.20;;;;;;;6.19;100.00;97273.31;4957324;28;20518;-60
2021/12/28 08:02:12;;;;;;;5.28;2.50;;;;;;;6.18;100.00;97279.69;4946849;28;20046;-60
2021/12/28 08:04:37;;;;;;;8.57;5.65;;;;;;;6.10;100.00;97287.38;4959270;28;20027;-60
2021/12/28 08:07:03;;;;;;;8.07;4.10;;;;;;;6.02;100.00;97294.81;4947778;28;20517;-60
2021/12/28 08:09:28;;;;;;;8.23;3.72;;;;;;;6.04;100.00;97302.50;4949969;28;20082;-59
2021/12/28 08:11:54;;;;;;;75.45;42.83;;;;;;;6.14;100.00;97305.22;4950800;28;20047;-60
2021/12/28 08:14:19;;;;;;;13.57;6.55;;;;;;;6.25;100.00;97298.88;4946619;28;20031;-60
2021/12/28 08:16:45;;;;;;;25.50;13.88;;;;;;;6.34;100.00;97288.53;4951201;28;20141;-61
2021/12/28 08:19:10;;;;;;;14.25;5.78;;;;;;;6.41;100.00;97293.59;4949591;28;20058;-62
2021/12/28 08:21:36;;;;;;;25.67;14.32;;;;;;;6.54;100.00;97287.78;4960077;28;20355;-60
2021/12/28 08:24:03;;;;;;;8.10;3.88;;;;;;;6.75;100.00;97277.94;4951611;28;20054;-60
2021/12/28 08:26:29;;;;;;;3.55;1.60;;;;;;;6.69;100.00;97279.81;4949757;28;20145;-60
2021/12/28 08:28:54;;;;;;;4.43;1.90;;;;;;;6.80;100.00;97279.81;4956711;28;20465;-60
2021/12/28 08:31:20;;;;;;;6.53;3.80;;;;;;;6.79;100.00;97283.53;4951897;28;20051;-60
2021/12/28 08:33:45;;;;;;;13.63;9.18;;;;;;;6.80;100.00;97290.47;4952939;28;20031;-60
2021/12/28 08:36:11;;;;;;;6.13;3.90;;;;;;;6.80;100.00;97311.78;4949571;28;20591;-57
2021/12/28 08:38:38;;;;;;;11.38;8.10;;;;;;;6.69;100.00;97310.97;4954414;28;20266;-61
2021/12/28 08:41:04;;;;;;;6.90;3.83;;;;;;;6.59;100.00;97316.25;4945685;28;20067;-60
2021/12/28 08:43:29;;;;;;;5.15;2.33;;;;;;;6.69;100.00;97325.06;4953943;28;20038;-61
2021/12/28 08:45:54;;;;;;;12.23;5.22;;;;;;;6.62;100.00;97315.75;4953020;28;20047;-60
2021/12/28 08:48:20;;;;;;;8.18;3.55;;;;;;;6.67;100.00;97323.75;4958283;28;20081;-59
2021/12/28 08:50:45;;;;;;;7.03;3.65;;;;;;;6.66;100.00;97325.59;4951797;28;20430;-60
2021/12/28 08:53:11;;;;;;;20.25;10.02;;;;;;;6.78;100.00;97313.91;4948738;28;20034;-60
2021/12/28 08:55:37;;;;;;;22.67;12.18;;;;;;;6.82;100.00;97309.66;4948218;28;20061;-60
2021/12/28 08:58:03;;;;;;;5.53;3.38;;;;;;;6.80;100.00;97301.91;4949518;28;20027;-59
2021/12/28 09:00:29;;;;;;;2.80;1.60;;;;;;;6.89;100.00;97304.88;4953522;28;20070;-60
2021/12/28 09:02:55;;;;;;;5.00;2.00;;;;;;;6.89;100.00;97304.88;4956205;28;20054;-61
2021/12/28 09:05:21;;;;;;;3.53;1.67;;;;;;;6.96;100.00;97297.38;4947177;28;20537;-59
2021/12/28 09:07:47;;;;;;;3.60;1.48;;;;;;;6.89;100.00;97292.34;4951122;28;20070;-60
2021/12/28 09:10:15;;;;;;;4.80;1.58;;;;;;;6.90;100.00;97295.81;4950333;28;20038;-60
2021/12/28 09:12:40;;;;;;;2.75;1.70;;;;;;;6.95;100.00;97293.13;4950734;28;20113;-60
2021/12/28 09:15:06;;;;;;;3.65;1.70;;;;;;;6.94;100.00;97296.88;4951099;28;20101;-60
2021/12/28 09:17:34;;;;;;;2.90;1.40;;;;;;;7.01;100.00;97300.06;4954615;28;20141;-60
2021/12/28 09:20:00;;;;;;;2.05;1.48;;;;;;;7.01;100.00;97302.72;4940901;28;20070;-60
2021/12/28 09:22:25;;;;;;;3.53;1.35;;;;;;;7.06;100.00;97313.41;4938069;29;20043;-60
2021/12/28 09:24:55;;;;;;;2.78;1.33;;;;;;;7.21;100.00;97317.09;4930619;29;20036;-60
2021/12/28 09:27:21;;;;;;;4.25;1.70;;;;;;;7.16;100.00;97311.78;4933821;29;20143;-60
2021/12/28 09:29:46;;;;;;;2.30;1.38;;;;;;;7.24;100.00;97308.56;4929935;29;20038;-60
2021/12/28 09:32:11;;;;;;;2.45;1.38;;;;;;;7.31;100.00;97306.44;4932848;28;20043;-60
2021/12/28 09:34:37;;;;;;;1.13;0.98;;;;;;;7.22;100.00;97302.75;4931855;29;20023;-60
2021/12/28 09:37:03;;;;;;;2.75;1.30;;;;;;;7.16;100.00;97296.59;4930796;29;20043;-60
2021/12/28 09:39:28;;;;;;;2.65;1.48;;;;;;;7.24;100.00;97297.91;4932079;29;20110;-59
2021/12/28 09:41:56;;;;;;;2.05;1.50;;;;;;;7.33;100.00;97314.97;4933782;28;20078;-60
2021/12/28 09:44:21;;;;;;;2.25;1.45;;;;;;;7.39;100.00;97297.94;4931961;29;20461;-60
2021/12/28 09:46:46;;;;;;;3.67;1.65;;;;;;;7.53;100.00;97293.63;4929402;29;20042;-60
2021/12/28 09:49:12;;;;;;;3.33;1.55;;;;;;;7.65;100.00;97295.22;4934844;29;20526;-60
2021/12/28 09:51:37;;;;;;;5.85;1.70;;;;;;;7.62;100.00;97293.09;4933736;29;20054;-60
2021/12/28 09:54:03;;;;;;;2.05;1.60;;;;;;;7.59;100.00;97301.59;4933783;29;20044;-60
2021/12/28 09:56:28;;;;;;;4.13;1.77;;;;;;;7.77;100.00;97293.84;4936112;29;20044;-60
2021/12/28 09:58:54;;;;;;;3.53;1.50;;;;;;;8.07;100.00;97296.69;4934312;29;20043;-60
2021/12/28 10:01:20;;;;;;;3.35;1.80;;;;;;;8.05;100.00;97296.16;4928222;29;20040;-60
2021/12/28 10:03:46;;;;;;;3.13;1.60;;;;;;;8.08;100.00;97299.06;4932287;29;20038;-60
2021/12/28 10:06:20;;;;;;;1.48;1.38;;;;;;;7.98;100.00;97299.88;4928354;29;20041;-60
2021/12/28 10:08:46;;;;;;;2.33;1.45;;;;;;;7.95;100.00;97295.09;4929790;29;20059;-60
2021/12/28 10:11:11;;;;;;;3.35;1.40;;;;;;;7.93;100.00;97291.91;4932179;29;20636;-60
2021/12/28 10:13:36;;;;;;;2.17;1.58;;;;;;;7.84;100.00;97282.91;4931062;29;20606;-59
2021/12/28 10:16:02;;;;;;;3.65;1.80;;;;;;;7.93;100.00;97285.78;4931879;29;20063;-60
2021/12/28 10:18:27;;;;;;;3.75;1.60;;;;;;;7.90;100.00;97281.78;4937029;28;20086;-59
2021/12/28 10:20:58;;;;;;;2.60;1.50;;;;;;;8.04;100.00;97268.69;4946152;28;20141;-59
2021/12/28 10:23:28;;;;;;;8.88;1.67;;;;;;;7.85;100.00;97284.47;4957359;28;20343;-61
2021/12/28 10:25:56;;;;;;;1.70;1.60;;;;;;;7.93;100.00;97291.13;4950729;28;20041;-59
2021/12/28 10:28:26;;;;;;;6.88;1.70;;;;;;;7.97;100.00;97297.50;4918314;28;20714;-59
2021/12/28 10:31:00;;;;;;;3.30;1.70;;;;;;;8.04;100.00;97281.19;4951005;28;20035;-59
2021/12/28 10:33:27;;;;;;;5.65;1.90;;;;;;;8.16;100.00;97289.69;4950556;28;20035;-59
2021/12/28 10:36:01;;;;;;;2.47;1.70;;;;;;;8.12;100.00;97284.09;4940864;28;20510;-59
2021/12/28 10:38:30;;;;;;;3.45;1.70;;;;;;;8.17;100.00;97272.63;4953703;28;20027;-59
2021/12/28 10:41:01;;;;;;;3.42;2.00;;;;;;;8.39;100.00;97259.72;4955163;28;20051;-60
2021/12/28 10:43:32;;;;;;;3.17;1.92;;;;;;;8.34;100.00;97257.06;4955976;28;20121;-60
2021/12/28 10:46:02;;;;;;;2.83;1.70;;;;;;;8.58;100.00;97259.06;4952389;28;20053;-59
2021/12/28 10:48:31;;;;;;;;;;;;;;;8.40;100.00;97255.97;4952314;28;20031;-59
2021/12/28 10:51:02;;;;;;;4.32;2.00;;;;;;;8.36;100.00;97252.25;4950247;28;20807;-60
2021/12/28 10:53:36;;;;;;;2.30;1.80;;;;;;;8.39;100.00;97246.38;4945389;28;20031;-60
2021/12/28 10:56:07;;;;;;;2.72;1.77;;;;;;;8.18;100.00;97239.50;4947541;28;20051;-60
2021/12/28 10:58:32;;;;;;;;;;;;;;;8.16;100.00;97241.66;4948582;28;20507;-60
2021/12/28 11:01:04;;;;;;;4.85;2.45;;;;;;;8.39;100.00;97230.34;4946489;28;20047;-60
2021/12/28 11:03:32;;;;;;;4.00;2.40;;;;;;;8.67;100.00;97227.22;4951144;28;20027;-60
2021/12/28 11:06:00;;;;;;;4.53;2.30;;;;;;;8.84;100.00;97220.41;4948796;28;20586;-60
2021/12/28 11:08:26;;;;;;;4.07;2.53;;;;;;;9.26;98.17;97228.84;4940563;28;20375;-60
2021/12/28 11:10:58;;;;;;;5.30;2.47;;;;;;;9.23;98.39;97237.44;4945776;28;20802;-60
2021/12/28 11:13:30;;;;;;;3.40;1.60;;;;;;;10.24;94.08;97233.88;4951229;28;20066;-60
2021/12/28 11:15:56;;;;;;;3.17;2.30;;;;;;;9.92;94.57;97238.03;4949240;28;20073;-60
2021/12/28 11:18:34;;;;;;;4.25;1.80;;;;;;;9.36;97.31;97225.28;4947354;28;20438;-60
2021/12/28 11:21:12;;;;;;;2.42;1.45;;;;;;;9.20;97.83;97222.75;4954512;28;20407;-61
2021/12/28 11:23:38;;;;;;;2.25;1.50;;;;;;;9.21;98.83;97210.19;4949965;28;20039;-61
2021/12/28 11:26:06;;;;;;;1.35;1.20;;;;;;;9.09;98.81;97204.44;4951555;28;20046;-60